createdAt,value
2023-05-24T00:00:53.463Z,101222.00
2023-05-24T00:03:24.107Z,101215.41
2023-05-24T00:05:54.584Z,101221.78
2023-05-24T00:08:24.994Z,101223.47
2023-05-24T00:10:55.280Z,101216.94
2023-05-24T00:13:25.990Z,101223.56
2023-05-24T00:15:56.298Z,101223.56
2023-05-24T00:18:26.623Z,101222.75
2023-05-24T00:20:58.698Z,101226.03
2023-05-24T00:23:29.119Z,101225.06
2023-05-24T00:25:59.874Z,101217.59
2023-05-24T00:28:31.490Z,101223.97
2023-05-24T00:31:02.346Z,101230.59
2023-05-24T00:33:32.527Z,101231.72
2023-05-24T00:36:02.828Z,101227.09
2023-05-24T00:38:33.085Z,101234.34
2023-05-24T00:41:03.424Z,101230.75
2023-05-24T00:43:33.644Z,101232.69
2023-05-24T00:46:22.530Z,101231.34
2023-05-24T00:48:53.279Z,101226.94
2023-05-24T00:51:30.462Z,101225.28
2023-05-24T00:53:58.586Z,101218.69
2023-05-24T00:56:28.016Z,101224.00
2023-05-24T00:58:58.666Z,101230.94
2023-05-24T01:01:31.357Z,101223.78
2023-05-24T01:04:00.630Z,101220.41
2023-05-24T01:06:36.502Z,101227.34
2023-05-24T01:09:32.316Z,101231.25
2023-05-24T01:12:26.693Z,101241.47
2023-05-24T01:15:23.933Z,101227.06
2023-05-24T01:18:11.809Z,101236.19
2023-05-24T01:20:45.215Z,101227.59
2023-05-24T01:23:34.548Z,101228.66
2023-05-24T01:26:54.173Z,101235.41
2023-05-24T01:29:29.097Z,101235.69
2023-05-24T01:31:59.014Z,101237.03
2023-05-24T01:34:27.395Z,101244.41
2023-05-24T01:36:55.971Z,101244.13
2023-05-24T01:39:29.963Z,101243.47
2023-05-24T01:43:02.590Z,101239.81
2023-05-24T01:45:56.970Z,101244.22
2023-05-24T01:49:03.958Z,101243.91
2023-05-24T01:51:54.538Z,101244.13
2023-05-24T01:54:33.387Z,101251.63
2023-05-24T01:57:09.155Z,101251.53
2023-05-24T01:59:44.742Z,101246.00
2023-05-24T02:02:14.365Z,101245.41
2023-05-24T02:04:44.447Z,101250.09
2023-05-24T02:07:14.381Z,101248.47
2023-05-24T02:09:44.407Z,101250.63
2023-05-24T02:12:18.130Z,101253.91
2023-05-24T02:14:51.305Z,101249.16
2023-05-24T02:17:21.465Z,101250.28
2023-05-24T02:19:51.385Z,101249.16
2023-05-24T02:22:22.560Z,101244.66
2023-05-24T02:24:53.709Z,101243.03
2023-05-24T02:27:22.722Z,101245.78
2023-05-24T02:29:53.083Z,101243.59
2023-05-24T02:32:23.349Z,101245.28
2023-05-24T02:34:53.261Z,101240.03
2023-05-24T02:37:23.159Z,101241.66
2023-05-24T02:39:53.608Z,101240.56
2023-05-24T02:42:23.857Z,101238.06
2023-05-24T02:44:54.176Z,101241.06
2023-05-24T02:47:23.952Z,101241.06
2023-05-24T02:49:55.638Z,101242.69
2023-05-24T02:52:27.088Z,101242.97
2023-05-24T02:54:56.458Z,101239.72
2023-05-24T02:57:26.966Z,101242.19
2023-05-24T02:59:56.398Z,101244.44
2023-05-24T03:02:28.933Z,101249.44
2023-05-24T03:04:59.234Z,101248.91
2023-05-24T03:07:27.890Z,101252.53
2023-05-24T03:09:56.456Z,101254.91
2023-05-24T03:12:25.181Z,101253.06
2023-05-24T03:14:53.570Z,101250.06
2023-05-24T03:17:22.055Z,101244.00
2023-05-24T03:19:51.195Z,101248.47
2023-05-24T03:22:20.060Z,101248.72
2023-05-24T03:24:50.418Z,101254.44
2023-05-24T03:27:19.217Z,101250.34
2023-05-24T03:29:47.837Z,101252.59
2023-05-24T03:32:16.372Z,101245.41
2023-05-24T03:34:44.605Z,101248.19
2023-05-24T03:37:14.560Z,101248.38
2023-05-24T03:39:43.093Z,101250.97
2023-05-24T03:42:17.097Z,101253.09
2023-05-24T03:44:44.752Z,101255.06
2023-05-24T03:47:13.206Z,101254.78
2023-05-24T03:49:41.712Z,101261.34
2023-05-24T03:52:09.944Z,101265.47
2023-05-24T03:54:38.876Z,101268.50
2023-05-24T03:57:07.810Z,101269.50
2023-05-24T03:59:35.336Z,101266.44
2023-05-24T04:02:03.972Z,101275.56
2023-05-24T04:04:32.451Z,101268.09
2023-05-24T04:07:00.912Z,101273.66
2023-05-24T04:09:29.684Z,101278.28
2023-05-24T04:11:57.886Z,101277.75
2023-05-24T04:14:26.434Z,101278.28
2023-05-24T04:16:57.698Z,101271.81
2023-05-24T04:19:28.086Z,101279.63
2023-05-24T04:21:58.444Z,101277.88
2023-05-24T04:24:28.771Z,101281.28
2023-05-24T04:26:59.047Z,101284.03
2023-05-24T04:29:29.344Z,101275.63
2023-05-24T04:32:00.955Z,101280.88
2023-05-24T04:34:33.971Z,101288.34
2023-05-24T04:37:04.546Z,101278.31
2023-05-24T04:39:34.961Z,101282.75
2023-05-24T04:42:10.020Z,101281.19
2023-05-24T04:44:43.633Z,101283.31
2023-05-24T04:47:15.380Z,101287.00
2023-05-24T04:49:45.275Z,101293.69
2023-05-24T04:52:13.848Z,101288.97
2023-05-24T04:54:42.264Z,101295.31
2023-05-24T04:57:10.652Z,101300.78
2023-05-24T04:59:39.041Z,101307.06
2023-05-24T05:02:07.537Z,101315.34
2023-05-24T05:04:35.908Z,101314.44
2023-05-24T05:07:04.537Z,101307.19
2023-05-24T05:09:33.773Z,101314.38
2023-05-24T05:12:02.972Z,101314.09
2023-05-24T05:14:33.568Z,101323.13
2023-05-24T05:17:03.819Z,101322.00
2023-05-24T05:19:34.133Z,101324.56
2023-05-24T05:22:04.588Z,101329.28
2023-05-24T05:24:34.947Z,101329.44
2023-05-24T05:27:06.421Z,101323.91
2023-05-24T05:29:36.645Z,101338.16
2023-05-24T05:32:07.360Z,101348.38
2023-05-24T05:34:40.554Z,101339.22
2023-05-24T05:37:11.257Z,101347.22
2023-05-24T05:39:41.510Z,101347.75
2023-05-24T05:42:14.693Z,101354.34
2023-05-24T05:44:45.032Z,101346.03
2023-05-24T05:47:15.395Z,101357.84
2023-05-24T05:49:45.639Z,101359.78
2023-05-24T05:52:15.870Z,101368.09
2023-05-24T05:54:46.078Z,101367.06
2023-05-24T05:57:16.565Z,101367.28
2023-05-24T05:59:46.815Z,101374.47
2023-05-24T06:02:19.182Z,101370.06
2023-05-24T06:04:51.254Z,101368.56
2023-05-24T06:07:21.589Z,101370.13
2023-05-24T06:09:52.228Z,101363.97
2023-05-24T06:12:22.857Z,101371.59
2023-05-24T06:14:53.103Z,101376.13
2023-05-24T06:17:24.786Z,101374.59
2023-05-24T06:19:56.181Z,101374.94
2023-05-24T06:22:29.989Z,101369.63
2023-05-24T06:25:00.280Z,101381.34
2023-05-24T06:27:30.738Z,101382.91
2023-05-24T06:30:01.129Z,101379.72
2023-05-24T06:32:31.503Z,101383.53
2023-05-24T06:35:01.733Z,101384.22
2023-05-24T06:37:31.973Z,101387.66
2023-05-24T06:40:02.498Z,101393.47
2023-05-24T06:42:32.710Z,101398.00
2023-05-24T06:45:04.165Z,101398.22
2023-05-24T06:47:34.475Z,101402.31
2023-05-24T06:50:05.588Z,101405.28
2023-05-24T06:52:36.379Z,101414.56
2023-05-24T06:55:07.017Z,101405.81
2023-05-24T06:57:37.214Z,101412.69
2023-05-24T07:00:12.308Z,101419.06
2023-05-24T07:02:42.794Z,101416.69
2023-05-24T07:05:13.385Z,101412.91
2023-05-24T07:07:44.572Z,101419.81
2023-05-24T07:10:15.038Z,101418.16
2023-05-24T07:12:43.426Z,101417.84
2023-05-24T07:15:11.920Z,101419.59
2023-05-24T07:17:42.133Z,101425.38
2023-05-24T07:20:12.011Z,101434.41
2023-05-24T07:22:42.109Z,101433.25
2023-05-24T07:25:11.161Z,101439.03
2023-05-24T07:27:39.001Z,101435.63
2023-05-24T07:30:19.673Z,101439.44
2023-05-24T07:32:59.049Z,101436.16
2023-05-24T07:35:29.538Z,101438.81
2023-05-24T07:37:58.828Z,101449.22
2023-05-24T07:40:27.277Z,101445.72
2023-05-24T07:42:56.294Z,101453.41
2023-05-24T07:45:24.499Z,101450.59
2023-05-24T07:47:54.503Z,101449.53
2023-05-24T07:50:27.316Z,101450.69
2023-05-24T07:52:57.883Z,101456.25
2023-05-24T07:55:28.672Z,101449.75
2023-05-24T07:57:57.016Z,101467.75
2023-05-24T08:00:30.265Z,101466.72
2023-05-24T08:03:00.980Z,101473.00
2023-05-24T08:05:31.906Z,101468.03
2023-05-24T08:08:02.132Z,101473.88
2023-05-24T08:10:31.063Z,101467.41
2023-05-24T08:13:01.353Z,101469.59
2023-05-24T08:15:29.977Z,101473.91
2023-05-24T08:18:00.335Z,101469.78
2023-05-24T08:20:30.797Z,101471.03
2023-05-24T08:23:01.789Z,101475.25
2023-05-24T08:25:32.257Z,101474.41
2023-05-24T08:28:02.733Z,101474.84
2023-05-24T08:30:33.240Z,101475.97
2023-05-24T08:33:03.728Z,101483.78
2023-05-24T08:35:36.179Z,101485.84
2023-05-24T08:38:07.776Z,101482.84
2023-05-24T08:40:38.715Z,101488.91
2023-05-24T08:43:12.245Z,101493.56
2023-05-24T08:45:45.246Z,101488.50
2023-05-24T08:48:18.578Z,101494.59
2023-05-24T08:50:50.838Z,101491.69
2023-05-24T08:53:23.852Z,101494.69
2023-05-24T08:55:56.470Z,101497.75
2023-05-24T08:58:27.286Z,101498.34
2023-05-24T09:01:02.274Z,101502.16
2023-05-24T09:03:37.013Z,101503.78
2023-05-24T09:06:11.212Z,101509.69
2023-05-24T09:08:44.182Z,101505.22
2023-05-24T09:11:18.720Z,101508.72
2023-05-24T09:13:50.058Z,101507.63
2023-05-24T09:16:20.475Z,101511.31
2023-05-24T09:18:50.830Z,101513.75
2023-05-24T09:21:22.483Z,101507.28
2023-05-24T09:23:54.683Z,101512.28
2023-05-24T09:26:25.590Z,101507.91
2023-05-24T09:28:57.925Z,101514.19
2023-05-24T09:31:36.180Z,101504.69
2023-05-24T09:34:16.971Z,101507.59
2023-05-24T09:36:48.729Z,101502.66
2023-05-24T09:39:21.111Z,101503.50
2023-05-24T09:41:57.548Z,101503.03
2023-05-24T09:44:30.851Z,101503.88
2023-05-24T09:47:09.117Z,101510.78
2023-05-24T09:49:40.039Z,101516.63
2023-05-24T09:52:15.133Z,101518.78
2023-05-24T09:54:48.343Z,101519.63
2023-05-24T09:57:19.067Z,101524.19
2023-05-24T09:59:52.741Z,101523.06
2023-05-24T10:02:26.106Z,101518.47
2023-05-24T10:05:03.930Z,101518.97
2023-05-24T10:07:36.151Z,101524.78
2023-05-24T10:10:07.896Z,101532.38
2023-05-24T10:12:43.213Z,101531.31
2023-05-24T10:15:13.534Z,101528.00
2023-05-24T10:17:43.800Z,101527.72
2023-05-24T10:20:14.622Z,101530.19
2023-05-24T10:22:51.640Z,101538.72
2023-05-24T10:25:27.788Z,101537.06
2023-05-24T10:28:06.979Z,101531.97
2023-05-24T10:31:03.895Z,101531.84
2023-05-24T10:33:40.525Z,101527.50
2023-05-24T10:36:16.259Z,101529.06
2023-05-24T10:38:51.288Z,101531.59
2023-05-24T10:41:22.535Z,101540.66
2023-05-24T10:44:08.495Z,101537.25
2023-05-24T10:47:11.316Z,101536.56
2023-05-24T10:49:57.903Z,101542.63
2023-05-24T10:52:36.774Z,101547.06
2023-05-24T10:55:11.800Z,101535.44
2023-05-24T10:57:42.434Z,101538.25
2023-05-24T11:00:35.110Z,101548.63
2023-05-24T11:03:11.436Z,101540.19
2023-05-24T11:05:55.605Z,101540.25
2023-05-24T11:08:36.123Z,101538.31
2023-05-24T11:11:26.502Z,101547.81
2023-05-24T11:13:58.227Z,101553.59
2023-05-24T11:16:41.351Z,101546.63
2023-05-24T11:19:25.168Z,101542.25
2023-05-24T11:21:59.154Z,101547.75
2023-05-24T11:24:29.291Z,101544.47
2023-05-24T11:27:02.682Z,101545.69
2023-05-24T11:29:31.340Z,101540.63
2023-05-24T11:32:08.009Z,101539.38
2023-05-24T11:34:40.126Z,101529.16
2023-05-24T11:37:13.394Z,101533.63
2023-05-24T11:39:49.616Z,101540.06
2023-05-24T11:42:23.286Z,101537.44
2023-05-24T11:44:55.579Z,101541.28
2023-05-24T11:47:25.325Z,101542.06
2023-05-24T11:49:53.187Z,101535.13
2023-05-24T11:52:21.519Z,101534.59
2023-05-24T11:54:51.411Z,101540.72
2023-05-24T11:57:46.255Z,101540.50
2023-05-24T12:00:28.474Z,101547.81
2023-05-24T12:03:08.184Z,101552.03
2023-05-24T12:05:38.404Z,101551.19
2023-05-24T12:08:12.528Z,101558.34
2023-05-24T12:10:47.433Z,101555.06
2023-05-24T12:13:27.060Z,101551.78
2023-05-24T12:15:58.458Z,101549.47
2023-05-24T12:18:29.924Z,101549.66
2023-05-24T12:21:00.598Z,101549.78
2023-05-24T12:23:32.942Z,101554.41
2023-05-24T12:26:04.666Z,101551.94
2023-05-24T12:28:39.155Z,101558.97
2023-05-24T12:31:10.282Z,101560.91
2023-05-24T12:33:40.532Z,101557.63
2023-05-24T12:36:10.926Z,101561.25
2023-05-24T12:38:40.532Z,101548.50
2023-05-24T12:41:13.911Z,101547.25
2023-05-24T12:43:44.760Z,101555.25
2023-05-24T12:46:15.181Z,101546.16
2023-05-24T12:48:45.709Z,101551.97
2023-05-24T12:51:15.922Z,101554.28
2023-05-24T12:53:46.594Z,101552.25
2023-05-24T12:56:16.909Z,101548.84
2023-05-24T12:58:47.582Z,101555.44
2023-05-24T13:01:18.366Z,101551.69
2023-05-24T13:03:48.797Z,101552.72
2023-05-24T13:06:19.303Z,101553.53
2023-05-24T13:08:49.739Z,101559.97
2023-05-24T13:11:20.203Z,101557.31
2023-05-24T13:13:50.423Z,101557.63
2023-05-24T13:16:20.726Z,101560.25
2023-05-24T13:18:51.523Z,101555.03
2023-05-24T13:21:22.421Z,101556.53
2023-05-24T13:23:52.679Z,101556.81
2023-05-24T13:26:22.104Z,101551.28
2023-05-24T13:29:11.769Z,101551.38
2023-05-24T13:31:41.065Z,101548.28
2023-05-24T13:34:11.743Z,101552.88
2023-05-24T13:36:43.799Z,101553.91
2023-05-24T13:39:16.542Z,101549.81
2023-05-24T13:41:47.467Z,101557.84
2023-05-24T13:44:18.378Z,101558.13
2023-05-24T13:46:48.861Z,101563.66
2023-05-24T13:49:19.165Z,101554.72
2023-05-24T13:51:49.906Z,101554.03
2023-05-24T13:54:20.128Z,101546.88
2023-05-24T13:56:51.059Z,101554.50
2023-05-24T13:59:21.335Z,101557.13
2023-05-24T14:01:51.590Z,101552.94
2023-05-24T14:04:21.948Z,101550.41
2023-05-24T14:06:52.647Z,101552.25
2023-05-24T14:09:23.819Z,101548.63
2023-05-24T14:11:54.265Z,101548.84
2023-05-24T14:16:57.594Z,101551.84
2023-05-24T14:19:27.917Z,101543.16
2023-05-24T14:21:58.156Z,101550.34
2023-05-24T14:24:28.442Z,101553.53
2023-05-24T14:26:58.663Z,101550.13
2023-05-24T14:29:28.880Z,101545.22
2023-05-24T14:31:59.204Z,101548.41
2023-05-24T14:34:29.448Z,101543.38
2023-05-24T14:36:59.635Z,101543.03
2023-05-24T14:39:30.497Z,101545.56
2023-05-24T14:42:01.514Z,101545.53
2023-05-24T14:44:31.832Z,101542.47
2023-05-24T14:47:02.056Z,101540.34
2023-05-24T14:49:32.229Z,101542.63
2023-05-24T14:52:03.618Z,101554.13
2023-05-24T14:54:33.806Z,101552.72
2023-05-24T14:57:04.371Z,101543.38
2023-05-24T14:59:34.788Z,101549.34
2023-05-24T15:02:05.225Z,101549.06
2023-05-24T15:04:35.467Z,101553.78
2023-05-24T15:07:06.029Z,101550.44
2023-05-24T15:09:36.279Z,101546.19
2023-05-24T15:12:11.732Z,101553.97
2023-05-24T15:14:42.338Z,101550.56
2023-05-24T15:17:12.945Z,101547.75
2023-05-24T15:19:43.129Z,101544.16
2023-05-24T15:22:13.479Z,101547.13
2023-05-24T15:24:43.678Z,101547.75
2023-05-24T15:27:13.908Z,101543.13
2023-05-24T15:29:44.317Z,101546.72
2023-05-24T15:32:14.575Z,101543.22
2023-05-24T15:34:44.876Z,101541.88
2023-05-24T15:37:13.323Z,101539.50
2023-05-24T15:39:41.621Z,101532.41
2023-05-24T15:42:14.075Z,101540.41
2023-05-24T15:44:41.510Z,101542.59
2023-05-24T15:47:10.142Z,101539.91
2023-05-24T15:49:39.577Z,101545.19
2023-05-24T15:52:10.809Z,101544.78
2023-05-24T15:54:41.366Z,101543.50
2023-05-24T15:57:11.811Z,101546.03
2023-05-24T15:59:41.989Z,101543.13
2023-05-24T16:02:12.485Z,101542.06
2023-05-24T16:04:42.800Z,101545.03
2023-05-24T16:07:13.152Z,101538.31
2023-05-24T16:09:46.401Z,101543.75
2023-05-24T16:12:18.343Z,101549.16
2023-05-24T16:14:48.672Z,101547.00
2023-05-24T16:17:19.388Z,101545.28
2023-05-24T16:19:49.847Z,101547.66
2023-05-24T16:22:20.092Z,101547.47
2023-05-24T16:24:50.487Z,101541.13
2023-05-24T16:27:20.729Z,101545.75
2023-05-24T16:29:51.529Z,101550.56
2023-05-24T16:32:21.757Z,101544.34
2023-05-24T16:34:56.255Z,101536.75
2023-05-24T16:37:27.498Z,101540.38
2023-05-24T16:39:57.757Z,101542.13
2023-05-24T16:42:28.401Z,101533.50
2023-05-24T16:44:59.060Z,101545.34
2023-05-24T16:47:30.017Z,101545.84
2023-05-24T16:50:01.138Z,101537.25
2023-05-24T16:52:30.379Z,101534.28
2023-05-24T16:55:00.829Z,101537.41
2023-05-24T16:57:34.573Z,101538.97
2023-05-24T17:00:07.957Z,101541.38
2023-05-24T17:02:38.087Z,101544.88
2023-05-24T17:05:07.456Z,101545.09
2023-05-24T17:07:37.138Z,101547.13
2023-05-24T17:10:07.531Z,101553.88
2023-05-24T17:12:36.196Z,101549.41
2023-05-24T17:15:06.317Z,101551.97
2023-05-24T17:17:34.113Z,101543.53
2023-05-24T17:20:02.742Z,101556.84
2023-05-24T17:22:31.463Z,101552.63
2023-05-24T17:25:00.032Z,101544.88
2023-05-24T17:27:28.446Z,101545.78
2023-05-24T17:29:57.584Z,101547.53
2023-05-24T17:32:25.954Z,101552.28
2023-05-24T17:34:54.449Z,101546.66
2023-05-24T17:37:23.352Z,101553.72
2023-05-24T17:39:54.532Z,101548.28
2023-05-24T17:42:25.543Z,101554.47
2023-05-24T17:44:55.376Z,101565.91
2023-05-24T17:47:25.158Z,101566.41
2023-05-24T17:49:54.015Z,101558.78
2023-05-24T17:52:31.647Z,101561.50
2023-05-24T17:55:13.587Z,101555.44
2023-05-24T17:57:54.397Z,101566.13
2023-05-24T18:00:34.747Z,101564.84
2023-05-24T18:03:15.836Z,101568.47
2023-05-24T18:05:47.471Z,101564.81
2023-05-24T18:08:15.905Z,101569.94
2023-05-24T18:10:44.302Z,101564.66
2023-05-24T18:13:13.288Z,101569.19
2023-05-24T18:15:41.347Z,101569.44
2023-05-24T18:18:09.715Z,101573.72
2023-05-24T18:20:38.187Z,101574.44
2023-05-24T18:23:06.459Z,101580.28
2023-05-24T18:25:35.719Z,101575.88
2023-05-24T18:28:03.425Z,101580.34
2023-05-24T18:30:31.706Z,101584.63
2023-05-24T18:33:05.370Z,101588.53
2023-05-24T18:35:38.477Z,101581.94
2023-05-24T18:38:08.818Z,101584.50
2023-05-24T18:40:39.143Z,101583.31
2023-05-24T18:43:09.442Z,101584.94
2023-05-24T18:45:39.692Z,101595.38
2023-05-24T18:48:09.894Z,101589.25
2023-05-24T18:50:40.136Z,101598.19
2023-05-24T18:53:10.443Z,101596.53
2023-05-24T18:55:41.041Z,101601.03
2023-05-24T18:58:11.416Z,101601.91
2023-05-24T19:00:41.842Z,101601.66
2023-05-24T19:03:13.482Z,101609.94
2023-05-24T19:05:44.486Z,101603.63
2023-05-24T19:08:15.037Z,101614.38
2023-05-24T19:10:45.395Z,101610.91
2023-05-24T19:13:15.964Z,101621.75
2023-05-24T19:15:46.407Z,101618.97
2023-05-24T19:18:16.801Z,101609.53
2023-05-24T19:20:47.386Z,101616.72
2023-05-24T19:23:17.795Z,101621.38
2023-05-24T19:25:50.370Z,101619.28
2023-05-24T19:28:20.837Z,101624.63
2023-05-24T19:30:51.180Z,101627.88
2023-05-24T19:33:19.723Z,101630.75
2023-05-24T19:35:48.813Z,101628.63
2023-05-24T19:38:18.103Z,101638.75
2023-05-24T19:40:46.173Z,101638.88
2023-05-24T19:43:14.433Z,101642.22
2023-05-24T19:45:43.071Z,101637.97
2023-05-24T19:48:11.327Z,101642.78
2023-05-24T19:50:40.819Z,101635.44
2023-05-24T19:53:09.180Z,101639.19
2023-05-24T19:55:37.588Z,101638.22
2023-05-24T19:58:06.070Z,101637.75
2023-05-24T20:00:34.858Z,101647.28
2023-05-24T20:03:03.200Z,101646.81
2023-05-24T20:05:31.632Z,101645.47
2023-05-24T20:08:00.071Z,101649.28
2023-05-24T20:10:30.331Z,101653.88
2023-05-24T20:13:00.226Z,101655.69
2023-05-24T20:15:28.949Z,101655.00
2023-05-24T20:17:59.728Z,101651.16
2023-05-24T20:20:30.103Z,101656.19
2023-05-24T20:23:00.541Z,101651.16
2023-05-24T20:25:30.763Z,101650.94
2023-05-24T20:28:01.086Z,101649.63
2023-05-24T20:30:31.550Z,101649.75
2023-05-24T20:33:02.175Z,101655.63
2023-05-24T20:35:32.430Z,101655.44
2023-05-24T20:38:03.012Z,101657.72
2023-05-24T20:40:33.350Z,101665.59
2023-05-24T20:43:04.239Z,101659.34
2023-05-24T20:45:35.131Z,101661.06
2023-05-24T20:48:03.130Z,101656.13
2023-05-24T20:50:33.421Z,101665.31
2023-05-24T20:53:02.422Z,101665.88
2023-05-24T20:55:32.665Z,101665.31
2023-05-24T20:58:03.243Z,101668.69
2023-05-24T21:00:33.539Z,101672.84
2023-05-24T21:03:04.009Z,101679.44
2023-05-24T21:05:36.585Z,101670.94
2023-05-24T21:08:06.563Z,101672.94
2023-05-24T21:10:36.102Z,101680.47
2023-05-24T21:13:04.491Z,101684.59
2023-05-24T21:15:32.180Z,101691.53
2023-05-24T21:18:00.761Z,101685.19
2023-05-24T21:20:29.352Z,101688.28
2023-05-24T21:22:57.778Z,101692.19
2023-05-24T21:25:27.334Z,101697.44
2023-05-24T21:27:56.324Z,101700.47
2023-05-24T21:30:24.561Z,101692.50
2023-05-24T21:32:52.845Z,101701.34
2023-05-24T21:35:21.327Z,101705.78
2023-05-24T21:37:50.027Z,101698.63
2023-05-24T21:40:18.556Z,101703.63
2023-05-24T21:42:47.153Z,101700.91
2023-05-24T21:45:16.656Z,101699.81
2023-05-24T21:47:45.268Z,101696.53
2023-05-24T21:50:15.765Z,101700.69
2023-05-24T21:52:43.991Z,101701.50
2023-05-24T21:55:12.438Z,101704.53
2023-05-24T21:57:40.924Z,101703.47
2023-05-24T22:00:12.782Z,101704.88
2023-05-24T22:02:43.243Z,101704.06
2023-05-24T22:05:11.845Z,101707.09
2023-05-24T22:07:40.134Z,101709.88
2023-05-24T22:10:09.334Z,101712.06
2023-05-24T22:12:37.045Z,101714.59
2023-05-24T22:15:06.768Z,101717.59
2023-05-24T22:17:37.132Z,101721.47
2023-05-24T22:20:07.849Z,101721.19
2023-05-24T22:22:48.998Z,101723.69
2023-05-24T22:25:22.335Z,101712.38
2023-05-24T22:27:51.820Z,101715.94
2023-05-24T22:30:19.762Z,101713.75
2023-05-24T22:32:47.724Z,101727.00
2023-05-24T22:35:16.434Z,101719.84
2023-05-24T22:37:44.718Z,101721.78
2023-05-24T22:40:13.831Z,101716.25
2023-05-24T22:42:41.666Z,101725.38
2023-05-24T22:45:11.067Z,101730.59
2023-05-24T22:47:41.309Z,101730.34
2023-05-24T22:50:10.264Z,101725.91
2023-05-24T22:52:42.603Z,101721.78
2023-05-24T22:55:13.035Z,101723.16
2023-05-24T22:57:41.825Z,101720.38
2023-05-24T23:00:12.332Z,101720.66
2023-05-24T23:02:42.769Z,101719.03
2023-05-24T23:05:11.721Z,101718.72
2023-05-24T23:07:41.542Z,101721.75
2023-05-24T23:10:11.915Z,101727.56
2023-05-24T23:12:42.451Z,101721.78
2023-05-24T23:15:16.947Z,101722.88
2023-05-24T23:17:48.379Z,101721.78
2023-05-24T23:20:16.382Z,101735.28
2023-05-24T23:22:44.831Z,101733.06
2023-05-24T23:25:14.379Z,101721.75
2023-05-24T23:27:43.053Z,101721.22
2023-05-24T23:30:13.383Z,101729.44
2023-05-24T23:32:42.089Z,101734.16
2023-05-24T23:35:11.309Z,101727.78
2023-05-24T23:37:39.624Z,101732.44
2023-05-24T23:40:09.465Z,101731.06
2023-05-24T23:42:38.054Z,101735.72
2023-05-24T23:45:07.433Z,101732.16
2023-05-24T23:47:35.106Z,101729.09
2023-05-24T23:50:06.223Z,101731.03
2023-05-24T23:52:35.527Z,101729.09
2023-05-24T23:55:06.521Z,101728.81
2023-05-24T23:57:35.893Z,101732.09
